page 5047 of 1004913 registered users

eBook PostsUsers

  1. 0hat23attic registered @ 2012-12-22 04:45:42, last login @ 2012-12-22 04:45:42
  2. 0dogtanker7 registered @ 2012-12-22 04:45:57, last login @ 2012-12-22 04:45:57
  3. 0limitchina6 registered @ 2012-12-22 04:45:58, last login @ 2012-12-22 04:45:58
  4. 0plate8oil registered @ 2012-12-22 04:46:44, last login @ 2012-12-22 04:46:44
  5. 0bananaage0 registered @ 2012-12-22 04:47:18, last login @ 2012-12-22 04:47:18
  6. 0dew5bongo registered @ 2012-12-22 04:47:33, last login @ 2012-12-22 04:47:33
  7. 0gong1font registered @ 2012-12-22 04:48:11, last login @ 2012-12-22 04:48:11
  8. 0force9epoch registered @ 2012-12-22 04:48:34, last login @ 2012-12-22 04:48:34
  9. 0cancer0air registered @ 2012-12-22 04:48:45, last login @ 2012-12-22 04:48:45
  10. 0harp86fish registered @ 2012-12-22 04:49:37, last login @ 2012-12-22 04:49:37
  11. 0spypoison6 registered @ 2012-12-22 04:50:04, last login @ 2012-12-22 04:50:04
  12. 0weeder7frog registered @ 2012-12-22 04:50:24, last login @ 2012-12-22 04:50:24
  13. 0apple9recess registered @ 2012-12-22 04:50:51, last login @ 2012-12-22 04:50:51
  14. 0fowlgas25 registered @ 2012-12-22 04:51:48, last login @ 2012-12-22 04:51:48
  15. 0secure11shell registered @ 2012-12-22 04:52:20, last login @ 2012-12-22 04:52:20
  16. 0charlz registered @ 2012-12-22 04:52:24, last login @ 2012-12-22 04:57:47
  17. 0cycledream3 registered @ 2012-12-22 04:53:33, last login @ 2012-12-22 04:53:33
  18. 0smiley22 registered @ 2012-12-22 04:55:25, last login @ 2012-12-22 04:55:25
  19. 0honeygarlic25 registered @ 2012-12-22 04:57:00, last login @ 2012-12-22 04:57:00
  20. 0bar4start registered @ 2012-12-22 04:58:20, last login @ 2012-12-22 04:58:20
  21. 0gluecone1 registered @ 2012-12-22 04:58:59, last login @ 2012-12-22 04:58:59
  22. 0trowel40sign registered @ 2012-12-22 05:02:12, last login @ 2012-12-22 05:02:12
  23. 0node68rocket registered @ 2012-12-22 05:02:32, last login @ 2012-12-22 05:02:32
  24. 0land7virgo registered @ 2012-12-22 05:03:59, last login @ 2012-12-22 05:42:10
  25. 0sleep4hyena registered @ 2012-12-22 05:07:04, last login @ 2012-12-22 05:07:04
  26. 0quilt7bite registered @ 2012-12-22 05:08:52, last login @ 2012-12-22 05:08:52
  27. 0lynxpan9 registered @ 2012-12-22 05:12:06, last login @ 2012-12-22 05:12:06
  28. 0edger8meter registered @ 2012-12-22 05:13:04, last login @ 2012-12-22 05:33:23
  29. 0haleyasdbccv6n registered @ 2012-12-22 05:13:47, last login @ 2012-12-22 05:13:47
  30. 0jewelflare15 registered @ 2012-12-22 05:13:52, last login @ 2012-12-22 05:13:52
  31. 0cycle60sushi registered @ 2012-12-22 05:15:10, last login @ 2012-12-22 05:15:10
  32. 0crookclient8 registered @ 2012-12-22 05:16:25, last login @ 2012-12-22 05:16:25
  33. 0grip2save registered @ 2012-12-22 05:16:59, last login @ 2012-12-22 05:16:59
  34. 0quietshrine3 registered @ 2012-12-22 05:23:21, last login @ 2012-12-22 05:23:21
  35. 0nickel9chick registered @ 2012-12-22 05:26:10, last login @ 2012-12-22 05:26:10
  36. 0cloud7winter registered @ 2012-12-22 05:27:24, last login @ 2012-12-22 05:27:24
  37. 0use28german registered @ 2012-12-22 05:28:33, last login @ 2012-12-22 05:28:33
  38. 0weightjam3 registered @ 2012-12-22 05:31:31, last login @ 2012-12-22 05:31:31
  39. 0bandlyre9 registered @ 2012-12-22 05:31:38, last login @ 2012-12-22 05:31:38
  40. 0eye3lunge registered @ 2012-12-22 05:33:05, last login @ 2012-12-22 05:33:05
  41. 0stream3camel registered @ 2012-12-22 05:33:24, last login @ 2012-12-22 05:33:24
  42. 0camparea95 registered @ 2012-12-22 05:33:25, last login @ 2012-12-22 05:33:25
  43. 0ink5mallet registered @ 2012-12-22 05:33:45, last login @ 2012-12-22 05:33:45
  44. 0gaugedoor34 registered @ 2012-12-22 05:34:04, last login @ 2012-12-22 05:41:27
  45. 0geomarcos registered @ 2012-12-22 05:34:46, last login @ 2012-12-22 05:37:59
  46. 0philip33425 registered @ 2012-12-22 05:35:38, last login @ 2012-12-22 05:35:38
  47. 0foldarch07 registered @ 2012-12-22 05:35:41, last login @ 2012-12-22 05:58:15
  48. 0den4health registered @ 2012-12-22 05:37:31, last login @ 2012-12-22 05:37:31
  49. 0lilyknot41 registered @ 2012-12-22 05:38:30, last login @ 2012-12-22 05:38:30
  50. 0raweendra registered @ 2012-12-22 05:38:48, last login @ 2012-12-22 05:44:51
  51. 0spot72baby registered @ 2012-12-22 05:39:44, last login @ 2012-12-22 05:39:44
  52. 0bangle2gauge registered @ 2012-12-22 05:40:13, last login @ 2012-12-22 05:40:13
  53. 0simbar registered @ 2012-12-22 05:41:13, last login @ 2012-12-22 05:41:13
  54. 0back3elbow registered @ 2012-12-22 05:41:18, last login @ 2012-12-22 05:41:18
  55. 0fleshborder20 registered @ 2012-12-22 05:41:46, last login @ 2012-12-22 05:41:46
  56. 0shameplanet03 registered @ 2012-12-22 05:42:07, last login @ 2012-12-22 05:42:07
  57. 0swan41home registered @ 2012-12-22 05:43:02, last login @ 2012-12-22 05:43:02
  58. 0effectstate9 registered @ 2012-12-22 05:43:04, last login @ 2012-12-22 05:43:04
  59. 0candleocelot98 registered @ 2012-12-22 05:44:16, last login @ 2012-12-22 05:44:16
  60. 0street8steven registered @ 2012-12-22 05:46:41, last login @ 2012-12-22 05:46:41
  61. 0period1change registered @ 2012-12-22 05:46:57, last login @ 2012-12-22 05:46:57
  62. 0pliertemple54 registered @ 2012-12-22 05:47:48, last login @ 2012-12-22 05:47:48
  63. 0debtor9second registered @ 2012-12-22 05:48:52, last login @ 2012-12-22 05:48:52
  64. 0boatneck1 registered @ 2012-12-22 05:51:22, last login @ 2012-12-22 05:51:22
  65. 0fatjeep2 registered @ 2012-12-22 05:52:39, last login @ 2012-12-22 05:52:39
  66. 0beretfight77 registered @ 2012-12-22 05:53:19, last login @ 2012-12-22 05:53:19
  67. 0windowhour49 registered @ 2012-12-22 05:53:35, last login @ 2012-12-22 05:53:35
  68. 0vision54june registered @ 2012-12-22 05:54:01, last login @ 2012-12-22 05:54:01
  69. 0rate2option registered @ 2012-12-22 05:54:27, last login @ 2012-12-22 05:54:27
  70. 0chetmgbdre093 registered @ 2012-12-22 05:54:35, last login @ 2012-12-22 05:54:35
  71. 0plane4twig registered @ 2012-12-22 05:55:26, last login @ 2012-12-22 05:55:26
  72. 0tennis6swamp registered @ 2012-12-22 05:55:30, last login @ 2012-12-22 05:55:30
  73. 0restswing06 registered @ 2012-12-22 05:58:32, last login @ 2012-12-22 05:58:32
  74. 0europe8ferry registered @ 2012-12-22 05:58:36, last login @ 2012-12-22 05:58:36
  75. 0nosebridge46 registered @ 2012-12-22 05:59:51, last login @ 2012-12-22 05:59:51
  76. 0flaxdecade8 registered @ 2012-12-22 06:01:20, last login @ 2012-12-22 06:01:20
  77. 0reportpea46 registered @ 2012-12-22 06:01:59, last login @ 2012-12-22 06:01:59
  78. 0maleclient33 registered @ 2012-12-22 06:03:18, last login @ 2012-12-22 06:03:18
  79. 0velvet5iris registered @ 2012-12-22 06:06:12, last login @ 2012-12-22 06:06:12
  80. 0jacket64fir registered @ 2012-12-22 06:06:20, last login @ 2012-12-22 06:06:20
  81. 0napkin2lock registered @ 2012-12-22 06:06:54, last login @ 2012-12-22 06:06:54
  82. 0bursthawk83 registered @ 2012-12-22 06:07:31, last login @ 2012-12-22 06:07:31
  83. 0cat6need registered @ 2012-12-22 06:08:31, last login @ 2012-12-22 06:08:31
  84. 0phone88meat registered @ 2012-12-22 06:09:30, last login @ 2012-12-22 06:09:30
  85. 0parkshrimp16 registered @ 2012-12-22 06:09:37, last login @ 2012-12-22 06:09:37
  86. 0celloporch94 registered @ 2012-12-22 06:10:48, last login @ 2012-12-22 06:30:22
  87. 0parrotmath1 registered @ 2012-12-22 06:10:52, last login @ 2012-12-22 06:10:52
  88. 0restchard7 registered @ 2012-12-22 06:10:57, last login @ 2012-12-22 06:32:22
  89. 0beaver10number registered @ 2012-12-22 06:12:00, last login @ 2012-12-22 06:12:00
  90. 0soundbrazil6 registered @ 2012-12-22 06:13:31, last login @ 2012-12-22 06:13:31
  91. 0Cajoroha registered @ 2012-12-22 06:14:17, last login @ 2012-12-22 06:14:17
  92. 0jason66whorl registered @ 2012-12-22 06:16:41, last login @ 2012-12-22 06:16:41
  93. 0numbertyvek1 registered @ 2012-12-22 06:18:34, last login @ 2012-12-22 06:18:34
  94. 0temper7record registered @ 2012-12-22 06:18:37, last login @ 2012-12-22 06:18:37
  95. 0buffer5girdle registered @ 2012-12-22 06:18:39, last login @ 2012-12-22 06:18:39
  96. 0salezinc0 registered @ 2012-12-22 06:19:26, last login @ 2012-12-22 06:39:15
  97. 0yarnclam37 registered @ 2012-12-22 06:20:36, last login @ 2012-12-22 06:20:36
  98. 0armskill3 registered @ 2012-12-22 06:20:50, last login @ 2012-12-22 06:46:16
  99. 0mint07clam registered @ 2012-12-22 06:22:47, last login @ 2012-12-22 06:22:47
  100. 0sugar6rose registered @ 2012-12-22 06:23:56, last login @ 2012-12-22 06:23:56
  101. 0walletfish8 registered @ 2012-12-22 06:24:00, last login @ 2012-12-22 06:24:00

More...

[5057] [5056] [5055] [5054] [5053] [5052] [5051] [5050] [5049] [5048] [5047] [5046] [5045] [5044] [5043] [5042] [5041] [5040] [5039] [5038] ...[1]
Back to Top